sensor_id;sensor_type;location;lat;lon;timestamp;pressure;altitude;pressure_sealevel;temperature;humidity
3812;BME280;1921;49.368;11.068;2022-09-14T00:01:11;96920.50;;;18.37;100.00
3812;BME280;1921;49.368;11.068;2022-09-14T00:03:37;96911.78;;;18.36;100.00
3812;BME280;1921;49.368;11.068;2022-09-14T00:06:09;96914.25;;;18.43;100.00
3812;BME280;1921;49.368;11.068;2022-09-14T00:08:36;96897.53;;;18.37;100.00
3812;BME280;1921;49.368;11.068;2022-09-14T00:11:12;96912.06;;;18.18;100.00
3812;BME280;1921;49.368;11.068;2022-09-14T00:13:42;96909.31;;;18.29;100.00
3812;BME280;1921;49.368;11.068;2022-09-14T00:16:15;96927.84;;;18.51;100.00
3812;BME280;1921;49.368;11.068;2022-09-14T00:18:41;96907.91;;;18.44;100.00
3812;BME280;1921;49.368;11.068;2022-09-14T00:21:09;96906.56;;;18.41;100.00
3812;BME280;1921;49.368;11.068;2022-09-14T00:23:38;96863.75;;;18.17;100.00
3812;BME280;1921;49.368;11.068;2022-09-14T00:26:08;96891.28;;;18.43;100.00
3812;BME280;1921;49.368;11.068;2022-09-14T00:29:04;96926.22;;;18.67;100.00
3812;BME280;1921;49.368;11.068;2022-09-14T00:31:32;96874.47;;;18.27;100.00
3812;BME280;1921;49.368;11.068;2022-09-14T00:34:00;96888.22;;;18.51;100.00
3812;BME280;1921;49.368;11.068;2022-09-14T00:36:28;96910.84;;;18.64;100.00
3812;BME280;1921;49.368;11.068;2022-09-14T00:38:55;96909.78;;;18.65;100.00
3812;BME280;1921;49.368;11.068;2022-09-14T00:41:25;96854.22;;;18.33;100.00
3812;BME280;1921;49.368;11.068;2022-09-14T00:43:58;96931.50;;;18.89;100.00
3812;BME280;1921;49.368;11.068;2022-09-14T00:46:26;96884.91;;;18.61;100.00
3812;BME280;1921;49.368;11.068;2022-09-14T00:48:57;96884.09;;;18.61;100.00
3812;BME280;1921;49.368;11.068;2022-09-14T00:51:24;96853.16;;;18.56;100.00
3812;BME280;1921;49.368;11.068;2022-09-14T00:53:51;96864.03;;;18.60;100.00
3812;BME280;1921;49.368;11.068;2022-09-14T00:56:17;96840.91;;;18.50;100.00
3812;BME280;1921;49.368;11.068;2022-09-14T00:58:45;96921.16;;;18.66;100.00
3812;BME280;1921;49.368;11.068;2022-09-14T01:01:12;96894.97;;;18.42;100.00
3812;BME280;1921;49.368;11.068;2022-09-14T01:03:38;96847.31;;;18.10;100.00
3812;BME280;1921;49.368;11.068;2022-09-14T01:09:27;96863.84;;;18.06;100.00
3812;BME280;1921;49.368;11.068;2022-09-14T01:12:28;96853.06;;;18.07;100.00
3812;BME280;1921;49.368;11.068;2022-09-14T01:18:24;96715.78;;;17.41;100.00
3812;BME280;1921;49.368;11.068;2022-09-14T01:21:10;96893.06;;;18.60;100.00
3812;BME280;1921;49.368;11.068;2022-09-14T01:30:05;96883.16;;;18.67;100.00
3812;BME280;1921;49.368;11.068;2022-09-14T01:35:35;96795.13;;;17.95;100.00
3812;BME280;1921;49.368;11.068;2022-09-14T01:38:26;96854.56;;;18.42;100.00
3812;BME280;1921;49.368;11.068;2022-09-14T01:40:56;96835.16;;;18.31;100.00
3812;BME280;1921;49.368;11.068;2022-09-14T01:46:15;96823.91;;;18.19;100.00
3812;BME280;1921;49.368;11.068;2022-09-14T01:49:07;96877.09;;;18.49;100.00
3812;BME280;1921;49.368;11.068;2022-09-14T01:51:48;96799.03;;;17.93;100.00
3812;BME280;1921;49.368;11.068;2022-09-14T01:54:33;96820.59;;;18.07;100.00
3812;BME280;1921;49.368;11.068;2022-09-14T01:57:26;96869.88;;;18.40;100.00
3812;BME280;1921;49.368;11.068;2022-09-14T01:59:58;96848.34;;;18.31;100.00
3812;BME280;1921;49.368;11.068;2022-09-14T02:02:36;96805.44;;;17.97;100.00
3812;BME280;1921;49.368;11.068;2022-09-14T02:07:44;96779.41;;;17.84;100.00
3812;BME280;1921;49.368;11.068;2022-09-14T02:10:12;96782.69;;;17.91;100.00
3812;BME280;1921;49.368;11.068;2022-09-14T02:12:39;96786.66;;;17.93;100.00
3812;BME280;1921;49.368;11.068;2022-09-14T02:15:07;96840.94;;;18.28;100.00
3812;BME280;1921;49.368;11.068;2022-09-14T02:17:34;96754.16;;;17.71;100.00
3812;BME280;1921;49.368;11.068;2022-09-14T02:20:06;96822.25;;;18.13;100.00
3812;BME280;1921;49.368;11.068;2022-09-14T02:22:34;96772.91;;;17.91;100.00
3812;BME280;1921;49.368;11.068;2022-09-14T02:25:00;96832.34;;;18.16;100.00
3812;BME280;1921;49.368;11.068;2022-09-14T02:27:26;96778.66;;;17.88;100.00
3812;BME280;1921;49.368;11.068;2022-09-14T02:29:52;96758.00;;;17.80;100.00
3812;BME280;1921;49.368;11.068;2022-09-14T02:32:48;96764.56;;;17.99;100.00
3812;BME280;1921;49.368;11.068;2022-09-14T02:35:35;96717.75;;;17.51;100.00
3812;BME280;1921;49.368;11.068;2022-09-14T02:38:35;96776.53;;;17.68;100.00
3812;BME280;1921;49.368;11.068;2022-09-14T02:41:22;96712.78;;;16.99;100.00
3812;BME280;1921;49.368;11.068;2022-09-14T02:44:10;96703.94;;;16.72;100.00
3812;BME280;1921;49.368;11.068;2022-09-14T02:46:54;96715.97;;;17.01;100.00
3812;BME280;1921;49.368;11.068;2022-09-14T02:49:45;96720.19;;;17.19;100.00
3812;BME280;1921;49.368;11.068;2022-09-14T02:55:17;96722.66;;;17.42;100.00
3812;BME280;1921;49.368;11.068;2022-09-14T02:58:09;96708.91;;;17.40;100.00
3812;BME280;1921;49.368;11.068;2022-09-14T03:00:39;96765.03;;;17.74;100.00
3812;BME280;1921;49.368;11.068;2022-09-14T03:03:08;96766.16;;;17.79;100.00
3812;BME280;1921;49.368;11.068;2022-09-14T03:05:35;96713.22;;;17.46;100.00
3812;BME280;1921;49.368;11.068;2022-09-14T03:08:01;96709.00;;;17.45;100.00
3812;BME280;1921;49.368;11.068;2022-09-14T03:10:29;96763.09;;;17.70;100.00
3812;BME280;1921;49.368;11.068;2022-09-14T03:12:56;96747.31;;;17.53;100.00
3812;BME280;1921;49.368;11.068;2022-09-14T03:15:22;96766.06;;;17.57;100.00
3812;BME280;1921;49.368;11.068;2022-09-14T03:17:49;96805.66;;;17.73;100.00
3812;BME280;1921;49.368;11.068;2022-09-14T03:20:18;96848.88;;;17.89;100.00
3812;BME280;1921;49.368;11.068;2022-09-14T03:22:45;96812.09;;;17.66;100.00
3812;BME280;1921;49.368;11.068;2022-09-14T03:25:11;96793.91;;;17.64;100.00
3812;BME280;1921;49.368;11.068;2022-09-14T03:27:37;96797.63;;;17.68;100.00
3812;BME280;1921;49.368;11.068;2022-09-14T03:30:07;96783.44;;;17.53;100.00
3812;BME280;1921;49.368;11.068;2022-09-14T03:32:33;96803.69;;;17.69;100.00
3812;BME280;1921;49.368;11.068;2022-09-14T03:34:59;96748.84;;;17.32;100.00
3812;BME280;1921;49.368;11.068;2022-09-14T03:37:26;96769.13;;;17.48;100.00
3812;BME280;1921;49.368;11.068;2022-09-14T03:39:51;96792.09;;;17.70;100.00
3812;BME280;1921;49.368;11.068;2022-09-14T03:42:17;96832.66;;;17.81;100.00
3812;BME280;1921;49.368;11.068;2022-09-14T03:44:43;96834.06;;;17.88;100.00
3812;BME280;1921;49.368;11.068;2022-09-14T03:47:09;96819.38;;;17.75;100.00
3812;BME280;1921;49.368;11.068;2022-09-14T03:49:34;96778.78;;;17.60;100.00
3812;BME280;1921;49.368;11.068;2022-09-14T03:52:00;96757.19;;;17.63;100.00
3812;BME280;1921;49.368;11.068;2022-09-14T03:54:26;96772.09;;;17.35;100.00
3812;BME280;1921;49.368;11.068;2022-09-14T03:56:52;96768.59;;;17.30;100.00
3812;BME280;1921;49.368;11.068;2022-09-14T03:59:19;96765.16;;;17.29;100.00
3812;BME280;1921;49.368;11.068;2022-09-14T04:01:45;96776.56;;;17.52;100.00
3812;BME280;1921;49.368;11.068;2022-09-14T04:04:11;96748.63;;;17.17;100.00
3812;BME280;1921;49.368;11.068;2022-09-14T04:06:37;96705.53;;;16.89;100.00
3812;BME280;1921;49.368;11.068;2022-09-14T04:09:04;96752.59;;;17.19;100.00
3812;BME280;1921;49.368;11.068;2022-09-14T04:11:30;96765.72;;;17.31;100.00
3812;BME280;1921;49.368;11.068;2022-09-14T04:14:01;96793.97;;;17.53;100.00
3812;BME280;1921;49.368;11.068;2022-09-14T04:16:28;96754.81;;;17.44;100.00
3812;BME280;1921;49.368;11.068;2022-09-14T04:18:53;96739.75;;;17.40;100.00
3812;BME280;1921;49.368;11.068;2022-09-14T04:21:22;96724.16;;;17.38;100.00
3812;BME280;1921;49.368;11.068;2022-09-14T04:23:52;96739.59;;;17.46;100.00
3812;BME280;1921;49.368;11.068;2022-09-14T04:26:20;96736.94;;;17.46;100.00
3812;BME280;1921;49.368;11.068;2022-09-14T04:28:46;96746.28;;;17.37;100.00
3812;BME280;1921;49.368;11.068;2022-09-14T04:31:13;96795.34;;;17.72;100.00
3812;BME280;1921;49.368;11.068;2022-09-14T04:33:42;96756.50;;;17.50;100.00
3812;BME280;1921;49.368;11.068;2022-09-14T04:36:14;96747.00;;;17.49;100.00
3812;BME280;1921;49.368;11.068;2022-09-14T04:38:41;96789.81;;;17.73;100.00
3812;BME280;1921;49.368;11.068;2022-09-14T04:41:16;96773.03;;;17.63;100.00
3812;BME280;1921;49.368;11.068;2022-09-14T04:43:44;96790.16;;;17.77;100.00
3812;BME280;1921;49.368;11.068;2022-09-14T04:46:16;96770.06;;;17.76;100.00
3812;BME280;1921;49.368;11.068;2022-09-14T04:48:42;96757.38;;;17.73;100.00
3812;BME280;1921;49.368;11.068;2022-09-14T04:51:19;96749.03;;;17.81;100.00
3812;BME280;1921;49.368;11.068;2022-09-14T04:53:49;96711.56;;;17.62;100.00
3812;BME280;1921;49.368;11.068;2022-09-14T04:56:16;96723.25;;;17.66;100.00
3812;BME280;1921;49.368;11.068;2022-09-14T04:58:44;96713.13;;;17.58;100.00
3812;BME280;1921;49.368;11.068;2022-09-14T05:01:33;96734.84;;;17.65;100.00
3812;BME280;1921;49.368;11.068;2022-09-14T05:04:00;96681.06;;;17.28;100.00
3812;BME280;1921;49.368;11.068;2022-09-14T05:06:29;96706.84;;;17.42;100.00
3812;BME280;1921;49.368;11.068;2022-09-14T05:08:56;96724.84;;;17.50;100.00
3812;BME280;1921;49.368;11.068;2022-09-14T05:11:25;96735.47;;;17.56;100.00
3812;BME280;1921;49.368;11.068;2022-09-14T05:13:51;96727.66;;;17.61;100.00
3812;BME280;1921;49.368;11.068;2022-09-14T05:16:23;96701.31;;;17.44;100.00
3812;BME280;1921;49.368;11.068;2022-09-14T05:18:50;96717.75;;;17.51;100.00
3812;BME280;1921;49.368;11.068;2022-09-14T05:21:19;96678.97;;;17.30;100.00
3812;BME280;1921;49.368;11.068;2022-09-14T05:23:46;96685.41;;;17.39;100.00
3812;BME280;1921;49.368;11.068;2022-09-14T05:26:13;96720.59;;;17.66;100.00
3812;BME280;1921;49.368;11.068;2022-09-14T05:28:39;96673.28;;;17.38;100.00
3812;BME280;1921;49.368;11.068;2022-09-14T05:31:08;96721.50;;;17.72;100.00
3812;BME280;1921;49.368;11.068;2022-09-14T05:33:34;96656.00;;;17.25;100.00
3812;BME280;1921;49.368;11.068;2022-09-14T05:36:05;96706.31;;;17.62;100.00
3812;BME280;1921;49.368;11.068;2022-09-14T05:38:33;96679.13;;;17.40;100.00
3812;BME280;1921;49.368;11.068;2022-09-14T05:41:00;96630.91;;;16.84;100.00
3812;BME280;1921;49.368;11.068;2022-09-14T05:43:28;96672.00;;;16.85;100.00
3812;BME280;1921;49.368;11.068;2022-09-14T05:45:54;96688.63;;;16.85;100.00
3812;BME280;1921;49.368;11.068;2022-09-14T05:48:20;96637.91;;;16.61;100.00
3812;BME280;1921;49.368;11.068;2022-09-14T05:50:46;96648.31;;;16.85;100.00
3812;BME280;1921;49.368;11.068;2022-09-14T05:53:12;96720.34;;;17.29;100.00
3812;BME280;1921;49.368;11.068;2022-09-14T05:55:38;96655.88;;;17.15;100.00
3812;BME280;1921;49.368;11.068;2022-09-14T05:58:03;96652.38;;;17.31;100.00
3812;BME280;1921;49.368;11.068;2022-09-14T06:00:30;96648.47;;;17.34;100.00
3812;BME280;1921;49.368;11.068;2022-09-14T06:02:56;96671.56;;;17.65;100.00
3812;BME280;1921;49.368;11.068;2022-09-14T06:05:22;96570.53;;;16.77;100.00
3812;BME280;1921;49.368;11.068;2022-09-14T06:07:53;96648.66;;;17.27;100.00
3812;BME280;1921;49.368;11.068;2022-09-14T06:10:20;96648.13;;;17.08;100.00
3812;BME280;1921;49.368;11.068;2022-09-14T06:12:46;96665.28;;;17.11;100.00
3812;BME280;1921;49.368;11.068;2022-09-14T06:15:12;96551.63;;;16.47;100.00
3812;BME280;1921;49.368;11.068;2022-09-14T06:17:37;96656.66;;;17.15;100.00
3812;BME280;1921;49.368;11.068;2022-09-14T06:20:05;96683.63;;;17.39;100.00
3812;BME280;1921;49.368;11.068;2022-09-14T06:22:32;96662.16;;;17.53;100.00
3812;BME280;1921;49.368;11.068;2022-09-14T06:24:58;96667.63;;;17.68;100.00
3812;BME280;1921;49.368;11.068;2022-09-14T06:27:24;96652.59;;;17.68;100.00
3812;BME280;1921;49.368;11.068;2022-09-14T06:29:50;96632.78;;;17.66;100.00
3812;BME280;1921;49.368;11.068;2022-09-14T06:32:19;96638.59;;;17.68;100.00
3812;BME280;1921;49.368;11.068;2022-09-14T06:34:45;96674.00;;;17.94;100.00
3812;BME280;1921;49.368;11.068;2022-09-14T06:37:11;96612.88;;;17.53;100.00
3812;BME280;1921;49.368;11.068;2022-09-14T06:39:37;96588.16;;;17.15;100.00
3812;BME280;1921;49.368;11.068;2022-09-14T06:42:03;96639.78;;;17.55;100.00
3812;BME280;1921;49.368;11.068;2022-09-14T06:44:30;96622.22;;;17.44;100.00
3812;BME280;1921;49.368;11.068;2022-09-14T06:46:56;96640.38;;;17.62;100.00
3812;BME280;1921;49.368;11.068;2022-09-14T06:49:21;96632.91;;;17.54;100.00
3812;BME280;1921;49.368;11.068;2022-09-14T06:51:49;96646.63;;;17.56;100.00
3812;BME280;1921;49.368;11.068;2022-09-14T06:54:16;96689.13;;;17.77;100.00
3812;BME280;1921;49.368;11.068;2022-09-14T06:56:44;96642.47;;;17.60;100.00
3812;BME280;1921;49.368;11.068;2022-09-14T06:59:13;96680.03;;;17.89;100.00
3812;BME280;1921;49.368;11.068;2022-09-14T07:01:40;96654.69;;;17.66;100.00
3812;BME280;1921;49.368;11.068;2022-09-14T07:04:07;96658.13;;;17.67;100.00
3812;BME280;1921;49.368;11.068;2022-09-14T07:06:46;96643.72;;;17.53;100.00
3812;BME280;1921;49.368;11.068;2022-09-14T07:09:14;96654.44;;;17.68;100.00
3812;BME280;1921;49.368;11.068;2022-09-14T07:11:39;96681.19;;;17.98;100.00
3812;BME280;1921;49.368;11.068;2022-09-14T07:14:06;96644.84;;;17.79;100.00
3812;BME280;1921;49.368;11.068;2022-09-14T07:16:33;96652.31;;;17.87;100.00
3812;BME280;1921;49.368;11.068;2022-09-14T07:19:03;96690.88;;;18.15;100.00
3812;BME280;1921;49.368;11.068;2022-09-14T07:21:31;96651.69;;;18.01;100.00
3812;BME280;1921;49.368;11.068;2022-09-14T07:23:57;96662.28;;;18.07;100.00
3812;BME280;1921;49.368;11.068;2022-09-14T07:26:29;96640.03;;;17.97;100.00
3812;BME280;1921;49.368;11.068;2022-09-14T07:29:02;96642.72;;;18.02;100.00
3812;BME280;1921;49.368;11.068;2022-09-14T07:31:36;96641.78;;;18.14;100.00
3812;BME280;1921;49.368;11.068;2022-09-14T07:34:04;96657.75;;;18.29;100.00
3812;BME280;1921;49.368;11.068;2022-09-14T07:36:34;96641.88;;;18.24;100.00
3812;BME280;1921;49.368;11.068;2022-09-14T07:39:07;96607.72;;;18.12;100.00
3812;BME280;1921;49.368;11.068;2022-09-14T07:41:34;96631.66;;;18.33;100.00
3812;BME280;1921;49.368;11.068;2022-09-14T07:44:03;96628.78;;;18.34;100.00
3812;BME280;1921;49.368;11.068;2022-09-14T07:46:31;96624.03;;;18.36;100.00
3812;BME280;1921;49.368;11.068;2022-09-14T07:49:02;96620.66;;;18.41;100.00
3812;BME280;1921;49.368;11.068;2022-09-14T07:51:29;96645.09;;;18.58;100.00
3812;BME280;1921;49.368;11.068;2022-09-14T07:53:56;96626.72;;;18.41;100.00
3812;BME280;1921;49.368;11.068;2022-09-14T07:56:22;96664.22;;;18.70;100.00
3812;BME280;1921;49.368;11.068;2022-09-14T07:58:53;96613.31;;;18.48;100.00
3812;BME280;1921;49.368;11.068;2022-09-14T08:01:20;96660.31;;;18.78;100.00
3812;BME280;1921;49.368;11.068;2022-09-14T08:03:46;96631.09;;;18.63;100.00
3812;BME280;1921;49.368;11.068;2022-09-14T08:06:21;96663.81;;;18.83;100.00
3812;BME280;1921;49.368;11.068;2022-09-14T08:08:50;96642.94;;;18.87;100.00
3812;BME280;1921;49.368;11.068;2022-09-14T08:11:25;96644.34;;;19.00;100.00
3812;BME280;1921;49.368;11.068;2022-09-14T08:14:00;96627.47;;;19.01;100.00
3812;BME280;1921;49.368;11.068;2022-09-14T08:16:28;96638.16;;;19.21;100.00
3812;BME280;1921;49.368;11.068;2022-09-14T08:18:57;96650.97;;;19.45;100.00
3812;BME280;1921;49.368;11.068;2022-09-14T08:21:24;96638.00;;;19.48;100.00
3812;BME280;1921;49.368;11.068;2022-09-14T08:23:50;96670.72;;;19.84;100.00
3812;BME280;1921;49.368;11.068;2022-09-14T08:26:20;96635.75;;;19.72;100.00
3812;BME280;1921;49.368;11.068;2022-09-14T08:28:49;96611.13;;;19.61;100.00
3812;BME280;1921;49.368;11.068;2022-09-14T08:31:21;96643.25;;;19.96;100.00
3812;BME280;1921;49.368;11.068;2022-09-14T08:33:56;96674.53;;;20.14;100.00
3812;BME280;1921;49.368;11.068;2022-09-14T08:36:24;96660.00;;;20.22;100.00
3812;BME280;1921;49.368;11.068;2022-09-14T08:38:50;96630.88;;;20.27;100.00
3812;BME280;1921;49.368;11.068;2022-09-14T08:46:41;96630.41;;;20.70;100.00
3812;BME280;1921;49.368;11.068;2022-09-14T08:49:43;96674.63;;;20.90;100.00
3812;BME280;1921;49.368;11.068;2022-09-14T09:00:53;96638.34;;;20.65;100.00
3812;BME280;1921;49.368;11.068;2022-09-14T09:03:55;96685.50;;;20.89;100.00
3812;BME280;1921;49.368;11.068;2022-09-14T09:09:42;96707.78;;;20.83;100.00
3812;BME280;1921;49.368;11.068;2022-09-14T09:12:20;96682.03;;;20.68;100.00
3812;BME280;1921;49.368;11.068;2022-09-14T09:14:55;96684.19;;;20.76;100.00
3812;BME280;1921;49.368;11.068;2022-09-14T09:17:39;96672.81;;;20.81;100.00
3812;BME280;1921;49.368;11.068;2022-09-14T09:20:41;96669.84;;;21.03;100.00
3812;BME280;1921;49.368;11.068;2022-09-14T09:23:17;96679.41;;;21.09;100.00
3812;BME280;1921;49.368;11.068;2022-09-14T09:28:45;96659.53;;;20.86;100.00
3812;BME280;1921;49.368;11.068;2022-09-14T09:31:14;96681.81;;;21.00;100.00
3812;BME280;1921;49.368;11.068;2022-09-14T09:33:41;96661.13;;;20.87;100.00
3812;BME280;1921;49.368;11.068;2022-09-14T09:36:07;96719.97;;;21.30;100.00
3812;BME280;1921;49.368;11.068;2022-09-14T09:38:37;96694.78;;;21.07;100.00
3812;BME280;1921;49.368;11.068;2022-09-14T09:41:21;96694.75;;;21.27;100.00
3812;BME280;1921;49.368;11.068;2022-09-14T09:44:03;96717.53;;;21.59;100.00
3812;BME280;1921;49.368;11.068;2022-09-14T09:46:33;96741.34;;;21.79;100.00
3812;BME280;1921;49.368;11.068;2022-09-14T09:49:15;96752.81;;;21.69;100.00
3812;BME280;1921;49.368;11.068;2022-09-14T09:51:42;96745.44;;;21.31;100.00
3812;BME280;1921;49.368;11.068;2022-09-14T09:57:00;96746.47;;;21.24;100.00
3812;BME280;1921;49.368;11.068;2022-09-14T09:59:31;96756.03;;;21.26;100.00
3812;BME280;1921;49.368;11.068;2022-09-14T10:02:27;96762.63;;;21.59;100.00
3812;BME280;1921;49.368;11.068;2022-09-14T10:10:20;96734.88;;;22.60;100.00
3812;BME280;1921;49.368;11.068;2022-09-14T10:12:53;96625.44;;;22.53;100.00
3812;BME280;1921;49.368;11.068;2022-09-14T10:17:54;96732.84;;;24.83;90.38
3812;BME280;1921;49.368;11.068;2022-09-14T10:20:23;96709.88;;;25.19;89.25
3812;BME280;1921;49.368;11.068;2022-09-14T10:22:49;96712.41;;;25.43;87.51
3812;BME280;1921;49.368;11.068;2022-09-14T10:33:05;96677.88;;;26.66;76.89
3812;BME280;1921;49.368;11.068;2022-09-14T10:35:50;96647.94;;;26.64;74.96
3812;BME280;1921;49.368;11.068;2022-09-14T10:41:52;96691.66;;;26.81;76.38
3812;BME280;1921;49.368;11.068;2022-09-14T10:44:55;96699.81;;;26.54;77.89
3812;BME280;1921;49.368;11.068;2022-09-14T10:48:10;96678.94;;;26.28;76.76
3812;BME280;1921;49.368;11.068;2022-09-14T10:54:06;96669.09;;;25.46;85.14
3812;BME280;1921;49.368;11.068;2022-09-14T10:59:48;96699.88;;;25.71;80.11
3812;BME280;1921;49.368;11.068;2022-09-14T11:22:17;96682.00;;;25.86;77.86
3812;BME280;1921;49.368;11.068;2022-09-14T11:27:50;96676.44;;;25.82;76.80
3812;BME280;1921;49.368;11.068;2022-09-14T11:30:18;96678.00;;;25.69;77.59
3812;BME280;1921;49.368;11.068;2022-09-14T11:32:58;96622.31;;;25.63;78.41
3812;BME280;1921;49.368;11.068;2022-09-14T11:35:46;96662.34;;;26.18;78.69
3812;BME280;1921;49.368;11.068;2022-09-14T11:38:31;96645.03;;;26.38;76.74
3812;BME280;1921;49.368;11.068;2022-09-14T11:41:25;96614.53;;;26.52;73.21
3812;BME280;1921;49.368;11.068;2022-09-14T11:44:05;96656.78;;;27.57;73.52
3812;BME280;1921;49.368;11.068;2022-09-14T11:46:55;96640.13;;;28.26;69.07
3812;BME280;1921;49.368;11.068;2022-09-14T11:50:24;96641.84;;;28.83;65.42
3812;BME280;1921;49.368;11.068;2022-09-14T11:52:41;96515.19;;;28.16;64.33
3812;BME280;1921;49.368;11.068;2022-09-14T11:55:15;96591.84;;;28.26;65.04
3812;BME280;1921;49.368;11.068;2022-09-14T11:57:44;96642.31;;;28.67;65.70
3812;BME280;1921;49.368;11.068;2022-09-14T12:05:32;96629.06;;;28.28;67.07
3812;BME280;1921;49.368;11.068;2022-09-14T12:13:35;96623.09;;;28.48;65.25
3812;BME280;1921;49.368;11.068;2022-09-14T12:16:06;96632.84;;;28.61;65.23
3812;BME280;1921;49.368;11.068;2022-09-14T12:18:36;96571.97;;;28.36;65.60
3812;BME280;1921;49.368;11.068;2022-09-14T12:21:26;96596.69;;;28.76;63.03
3812;BME280;1921;49.368;11.068;2022-09-14T12:23:53;96579.66;;;28.55;62.33
3812;BME280;1921;49.368;11.068;2022-09-14T12:26:34;96606.81;;;28.62;64.56
3812;BME280;1921;49.368;11.068;2022-09-14T12:34:22;96630.78;;;28.67;64.99
3812;BME280;1921;49.368;11.068;2022-09-14T12:39:25;96592.44;;;28.66;64.30
3812;BME280;1921;49.368;11.068;2022-09-14T12:44:38;96575.47;;;29.39;59.30
3812;BME280;1921;49.368;11.068;2022-09-14T12:49:49;96586.63;;;29.49;62.20
3812;BME280;1921;49.368;11.068;2022-09-14T12:57:57;96582.53;;;29.82;57.79
3812;BME280;1921;49.368;11.068;2022-09-14T13:00:27;96570.47;;;29.88;57.77
3812;BME280;1921;49.368;11.068;2022-09-14T13:03:16;96607.38;;;29.79;58.12
3812;BME280;1921;49.368;11.068;2022-09-14T13:05:44;96602.09;;;29.61;62.00
3812;BME280;1921;49.368;11.068;2022-09-14T13:08:11;96582.53;;;30.02;57.41
3812;BME280;1921;49.368;11.068;2022-09-14T13:10:45;96594.47;;;30.35;58.19
3812;BME280;1921;49.368;11.068;2022-09-14T13:13:22;96626.13;;;30.38;58.15
3812;BME280;1921;49.368;11.068;2022-09-14T13:15:58;96614.22;;;30.39;57.78
3812;BME280;1921;49.368;11.068;2022-09-14T13:18:35;96557.19;;;30.24;56.26
3812;BME280;1921;49.368;11.068;2022-09-14T13:21:23;96552.09;;;29.90;58.04
3812;BME280;1921;49.368;11.068;2022-09-14T13:23:50;96577.56;;;30.13;58.31
3812;BME280;1921;49.368;11.068;2022-09-14T13:26:28;96578.72;;;30.24;59.04
3812;BME280;1921;49.368;11.068;2022-09-14T13:28:59;96584.63;;;30.39;57.47
3812;BME280;1921;49.368;11.068;2022-09-14T13:31:37;96573.47;;;29.86;58.84
3812;BME280;1921;49.368;11.068;2022-09-14T13:34:04;96594.22;;;29.47;60.31
3812;BME280;1921;49.368;11.068;2022-09-14T13:36:41;96541.16;;;29.15;61.73
3812;BME280;1921;49.368;11.068;2022-09-14T13:39:36;96571.78;;;29.43;61.40
3812;BME280;1921;49.368;11.068;2022-09-14T13:42:03;96578.94;;;29.39;61.97
3812;BME280;1921;49.368;11.068;2022-09-14T13:44:35;96532.34;;;29.06;62.46
3812;BME280;1921;49.368;11.068;2022-09-14T13:47:03;96521.47;;;29.02;62.90
3812;BME280;1921;49.368;11.068;2022-09-14T13:49:30;96529.97;;;29.04;61.80
3812;BME280;1921;49.368;11.068;2022-09-14T13:54:53;96511.69;;;28.07;67.77
3812;BME280;1921;49.368;11.068;2022-09-14T13:57:23;96483.16;;;26.94;72.83
3812;BME280;1921;49.368;11.068;2022-09-14T14:00:24;96531.28;;;25.23;83.80
3812;BME280;1921;49.368;11.068;2022-09-14T14:03:03;96488.25;;;23.10;92.88
3812;BME280;1921;49.368;11.068;2022-09-14T14:05:39;96480.31;;;22.28;100.00
3812;BME280;1921;49.368;11.068;2022-09-14T14:08:29;96551.72;;;22.69;100.00
3812;BME280;1921;49.368;11.068;2022-09-14T14:10:57;96513.09;;;22.47;100.00
3812;BME280;1921;49.368;11.068;2022-09-14T14:13:29;96550.59;;;22.75;100.00
3812;BME280;1921;49.368;11.068;2022-09-14T14:16:23;96534.13;;;22.44;100.00
3812;BME280;1921;49.368;11.068;2022-09-14T14:18:56;96507.78;;;22.18;100.00
3812;BME280;1921;49.368;11.068;2022-09-14T14:21:24;96548.63;;;22.22;100.00
3812;BME280;1921;49.368;11.068;2022-09-14T14:26:37;96512.94;;;21.99;100.00
3812;BME280;1921;49.368;11.068;2022-09-14T14:29:07;96554.66;;;21.99;100.00
3812;BME280;1921;49.368;11.068;2022-09-14T14:31:34;96556.47;;;21.54;100.00
3812;BME280;1921;49.368;11.068;2022-09-14T14:33:59;96506.06;;;20.89;100.00
3812;BME280;1921;49.368;11.068;2022-09-14T14:36:25;96517.19;;;20.91;100.00
3812;BME280;1921;49.368;11.068;2022-09-14T14:38:51;96536.72;;;21.11;100.00
3812;BME280;1921;49.368;11.068;2022-09-14T14:41:19;96571.13;;;21.36;100.00
3812;BME280;1921;49.368;11.068;2022-09-14T14:43:46;96526.91;;;21.11;100.00
3812;BME280;1921;49.368;11.068;2022-09-14T14:46:15;96541.22;;;21.26;100.00
3812;BME280;1921;49.368;11.068;2022-09-14T14:48:42;96497.25;;;21.04;100.00
3812;BME280;1921;49.368;11.068;2022-09-14T14:51:12;96524.34;;;20.96;100.00
3812;BME280;1921;49.368;11.068;2022-09-14T14:53:40;96515.94;;;20.48;100.00
3812;BME280;1921;49.368;11.068;2022-09-14T14:56:06;96542.41;;;20.74;100.00
3812;BME280;1921;49.368;11.068;2022-09-14T14:58:45;96506.66;;;20.61;100.00
3812;BME280;1921;49.368;11.068;2022-09-14T15:01:11;96536.25;;;20.98;100.00
3812;BME280;1921;49.368;11.068;2022-09-14T15:03:38;96523.91;;;20.63;100.00
3812;BME280;1921;49.368;11.068;2022-09-14T15:06:22;96540.31;;;20.60;100.00
3812;BME280;1921;49.368;11.068;2022-09-14T15:08:53;96544.75;;;20.85;100.00
3812;BME280;1921;49.368;11.068;2022-09-14T15:11:19;96528.06;;;20.80;100.00
3812;BME280;1921;49.368;11.068;2022-09-14T15:13:46;96617.56;;;21.23;100.00
3812;BME280;1921;49.368;11.068;2022-09-14T15:16:13;96609.16;;;21.06;100.00
3812;BME280;1921;49.368;11.068;2022-09-14T15:18:39;96556.97;;;20.81;100.00
3812;BME280;1921;49.368;11.068;2022-09-14T15:21:06;96532.91;;;20.32;100.00
3812;BME280;1921;49.368;11.068;2022-09-14T15:23:32;96556.16;;;19.99;100.00
3812;BME280;1921;49.368;11.068;2022-09-14T15:25:58;96606.50;;;20.14;100.00
3812;BME280;1921;49.368;11.068;2022-09-14T15:28:24;96574.41;;;19.80;100.00
3812;BME280;1921;49.368;11.068;2022-09-14T15:30:50;96541.81;;;19.59;100.00
3812;BME280;1921;49.368;11.068;2022-09-14T15:33:17;96582.63;;;19.84;100.00
3812;BME280;1921;49.368;11.068;2022-09-14T15:35:43;96562.22;;;19.74;100.00
3812;BME280;1921;49.368;11.068;2022-09-14T15:38:09;96533.28;;;19.47;100.00